Time;durP1;ratioP1;P1;durP2;ratioP2;P2;SDS_P1;SDS_P2;PMS_P1;PMS_P2;Temp;Humidity;BMP_temperature;BMP_pressure;BME280_temperature;BME280_humidity;BME280_pressure;Samples;Min_cycle;Max_cycle;Signal;HPM_P1;HPM_P2
2023/05/14 05:00:06;;;;;;;11.57;10.47;;;13.50;97.20;;;;;;1741944;28;20218;-74
2023/05/14 05:00:57;;;;;;;11.20;10.40;;;13.50;97.20;;;;;;1742093;28;20235;-74
2023/05/14 05:01:50;;;;;;;11.68;10.77;;;13.50;97.20;;;;;;1741633;28;20199;-74
2023/05/14 05:02:41;;;;;;;11.35;10.35;;;13.50;97.20;;;;;;1741782;28;20204;-75
2023/05/14 05:03:33;;;;;;;11.30;10.40;;;13.50;97.20;;;;;;1741711;28;20200;-73
2023/05/14 05:04:23;;;;;;;11.02;10.02;;;13.50;97.20;;;;;;1741814;28;20302;-74
2023/05/14 05:05:14;;;;;;;10.43;9.63;;;13.50;97.20;;;;;;1742031;28;20196;-74
2023/05/14 05:06:06;;;;;;;11.83;10.83;;;13.50;97.20;;;;;;1742136;28;20207;-74
2023/05/14 05:06:57;;;;;;;11.32;10.30;;;13.50;97.20;;;;;;1742224;28;20206;-74
2023/05/14 05:07:49;;;;;;;10.90;10.00;;;13.50;97.20;;;;;;1742021;28;20686;-74
2023/05/14 05:08:40;;;;;;;11.35;10.45;;;13.50;97.20;;;;;;1742084;28;20237;-74
2023/05/14 05:09:31;;;;;;;11.40;10.45;;;13.50;97.20;;;;;;1741934;28;20199;-74
2023/05/14 05:10:23;;;;;;;11.77;10.77;;;13.50;97.20;;;;;;1741929;28;20711;-74
2023/05/14 05:11:14;;;;;;;11.82;10.82;;;13.50;97.20;;;;;;1741887;28;20536;-74
2023/05/14 05:12:06;;;;;;;11.10;10.20;;;13.50;97.20;;;;;;1742079;28;20229;-74
2023/05/14 05:12:57;;;;;;;11.75;10.75;;;13.50;97.20;;;;;;1742028;28;20214;-74
2023/05/14 05:13:49;;;;;;;11.47;10.57;;;13.50;97.20;;;;;;1742109;28;20217;-74
2023/05/14 05:14:39;;;;;;;12.57;10.73;;;13.50;97.20;;;;;;1741947;28;20238;-74
2023/05/14 05:15:32;;;;;;;11.80;10.60;;;13.50;97.20;;;;;;1741733;28;20676;-74
2023/05/14 05:16:23;;;;;;;10.57;9.77;;;13.60;97.20;;;;;;1742048;28;20195;-74
2023/05/14 05:17:15;;;;;;;11.30;10.30;;;13.60;97.20;;;;;;1742027;28;20197;-74
2023/05/14 05:18:05;;;;;;;12.02;10.93;;;13.60;97.20;;;;;;1741973;28;20203;-74
2023/05/14 05:18:57;;;;;;;10.90;10.00;;;13.60;97.20;;;;;;1742010;28;20209;-73
2023/05/14 05:19:48;;;;;;;10.55;9.65;;;13.60;97.20;;;;;;1741626;28;20203;-74
2023/05/14 05:20:40;;;;;;;11.27;10.40;;;13.60;97.20;;;;;;1741943;28;20734;-74
2023/05/14 05:21:31;;;;;;;11.40;10.40;;;13.60;97.20;;;;;;1741878;28;20242;-74
2023/05/14 05:22:23;;;;;;;10.87;10.03;;;13.60;97.20;;;;;;1741939;28;20222;-74
2023/05/14 05:23:13;;;;;;;11.77;10.52;;;13.60;97.20;;;;;;1741870;28;20950;-74
2023/05/14 05:24:06;;;;;;;11.23;10.13;;;13.60;97.20;;;;;;1741981;28;20665;-74
2023/05/14 05:24:58;;;;;;;10.93;10.00;;;13.60;97.20;;;;;;1741791;28;20277;-74
2023/05/14 05:25:50;;;;;;;11.20;10.18;;;13.60;97.20;;;;;;1741974;28;20207;-74
2023/05/14 05:26:41;;;;;;;11.98;10.80;;;13.60;97.20;;;;;;1742014;28;20290;-74
2023/05/14 05:27:33;;;;;;;12.33;11.23;;;13.60;97.20;;;;;;1741879;28;20249;-74
2023/05/14 05:28:23;;;;;;;11.68;10.68;;;13.60;97.20;;;;;;1741923;28;20207;-74
2023/05/14 05:29:15;;;;;;;11.10;10.20;;;13.60;97.20;;;;;;1741604;28;20195;-74
2023/05/14 05:30:07;;;;;;;11.50;10.60;;;13.60;97.20;;;;;;1741586;28;20215;-74
2023/05/14 05:31:00;;;;;;;11.93;10.90;;;13.60;97.20;;;;;;1741931;28;20773;-74
2023/05/14 05:31:51;;;;;;;11.60;10.60;;;13.60;97.20;;;;;;1741851;28;20687;-75
2023/05/14 05:32:42;;;;;;;12.63;11.03;;;13.60;97.20;;;;;;1741953;28;20679;-74
2023/05/14 05:33:33;;;;;;;11.43;10.52;;;13.60;97.20;;;;;;1741859;28;20216;-75
2023/05/14 05:34:25;;;;;;;12.02;11.02;;;13.60;97.20;;;;;;1741916;28;20281;-74
2023/05/14 05:35:16;;;;;;;12.27;11.20;;;13.70;97.20;;;;;;1741903;28;20202;-74
2023/05/14 05:36:08;;;;;;;11.53;10.63;;;13.70;97.20;;;;;;1741948;28;20207;-74
2023/05/14 05:36:59;;;;;;;9.65;8.85;;;13.70;97.20;;;;;;1741845;28;20456;-74
2023/05/14 05:37:51;;;;;;;10.83;9.93;;;13.70;97.20;;;;;;1741931;28;20213;-74
2023/05/14 05:38:41;;;;;;;12.00;10.90;;;13.70;97.20;;;;;;1741928;28;20578;-74
2023/05/14 05:39:33;;;;;;;11.73;10.53;;;13.70;97.20;;;;;;1741684;28;20246;-74
2023/05/14 05:40:24;;;;;;;11.13;10.23;;;13.70;97.20;;;;;;1741738;28;20202;-75
2023/05/14 05:41:16;;;;;;;12.00;11.00;;;13.70;97.20;;;;;;1741715;28;20226;-74
2023/05/14 05:42:07;;;;;;;11.45;10.45;;;13.70;97.20;;;;;;1741874;28;20203;-74
2023/05/14 05:42:58;;;;;;;11.13;10.13;;;13.70;97.20;;;;;;1741500;28;20679;-75
2023/05/14 05:43:49;;;;;;;11.15;10.15;;;13.80;97.20;;;;;;1741797;28;20469;-74
2023/05/14 05:44:41;;;;;;;10.77;9.87;;;13.80;97.20;;;;;;1741647;28;20219;-74
2023/05/14 05:45:32;;;;;;;12.13;11.13;;;13.80;97.20;;;;;;1741957;28;20203;-75
2023/05/14 05:46:25;;;;;;;10.23;9.33;;;13.80;97.20;;;;;;1741936;28;20290;-74
2023/05/14 05:47:15;;;;;;;11.25;10.40;;;13.80;97.20;;;;;;1741751;28;20214;-74
2023/05/14 05:48:07;;;;;;;11.93;10.93;;;13.90;97.20;;;;;;1741822;28;20199;-74
2023/05/14 05:48:58;;;;;;;10.93;10.02;;;13.90;97.20;;;;;;1741834;28;20449;-74
2023/05/14 05:49:50;;;;;;;10.67;9.60;;;13.90;97.20;;;;;;1741410;28;20651;-74
2023/05/14 05:50:43;;;;;;;11.07;10.07;;;13.90;97.20;;;;;;1741767;28;20250;-74
2023/05/14 05:51:34;;;;;;;11.32;10.25;;;13.90;97.20;;;;;;1741870;28;20633;-74
2023/05/14 05:52:25;;;;;;;10.15;9.25;;;13.90;97.20;;;;;;1741813;28;20279;-74
2023/05/14 05:53:17;;;;;;;11.00;9.87;;;14.00;97.20;;;;;;1741617;28;20202;-74
2023/05/14 05:54:08;;;;;;;10.65;9.75;;;14.00;97.20;;;;;;1741805;28;20446;-74
2023/05/14 05:54:59;;;;;;;12.10;10.97;;;14.00;97.20;;;;;;1741778;28;20198;-73
2023/05/14 05:55:50;;;;;;;11.50;10.30;;;14.00;97.20;;;;;;1741885;28;20203;-74
2023/05/14 05:56:42;;;;;;;11.60;10.40;;;14.00;97.20;;;;;;1741521;28;20188;-74
2023/05/14 05:57:33;;;;;;;11.40;10.32;;;14.00;97.20;;;;;;1741861;28;20261;-74
2023/05/14 05:58:25;;;;;;;11.27;10.27;;;14.00;97.20;;;;;;1741888;28;20241;-74
2023/05/14 05:59:15;;;;;;;10.75;9.85;;;14.10;97.20;;;;;;1741933;28;20202;-74
2023/05/14 06:00:12;;;;;;;11.53;10.60;;;14.10;97.20;;;;;;1741636;28;20214;-74
2023/05/14 06:01:03;;;;;;;10.23;9.32;;;14.10;97.20;;;;;;1741937;28;20657;-74
2023/05/14 06:01:56;;;;;;;11.07;10.17;;;14.10;97.20;;;;;;1741670;28;20698;-75
2023/05/14 06:02:47;;;;;;;11.70;10.70;;;14.10;97.20;;;;;;1742351;28;20203;-74
2023/05/14 06:03:39;;;;;;;12.23;10.80;;;14.20;97.20;;;;;;1741948;28;20280;-74
2023/05/14 06:04:30;;;;;;;10.70;9.80;;;14.20;97.20;;;;;;1743260;28;20195;-74
2023/05/14 06:05:21;;;;;;;10.80;9.90;;;14.20;97.20;;;;;;1741936;28;20199;-74
2023/05/14 06:06:12;;;;;;;10.80;9.80;;;14.20;97.20;;;;;;1741900;28;20203;-73
2023/05/14 06:07:04;;;;;;;11.37;10.37;;;14.20;97.20;;;;;;1742419;28;20191;-73
2023/05/14 06:07:55;;;;;;;11.43;10.43;;;14.20;97.20;;;;;;1742375;28;20207;-73
2023/05/14 06:08:47;;;;;;;10.80;9.80;;;14.20;97.20;;;;;;1742086;28;20203;-74
2023/05/14 06:09:37;;;;;;;11.27;10.38;;;14.30;97.20;;;;;;1741871;28;20218;-74
2023/05/14 06:10:29;;;;;;;11.47;10.57;;;14.30;97.20;;;;;;1741529;28;20195;-75
2023/05/14 06:11:20;;;;;;;12.27;11.27;;;14.30;97.20;;;;;;1741937;28;20203;-74
2023/05/14 06:12:12;;;;;;;10.60;9.60;;;14.30;97.20;;;;;;1742089;28;20202;-74
2023/05/14 06:13:03;;;;;;;11.20;10.25;;;14.30;97.20;;;;;;1741671;28;20442;-74
2023/05/14 06:13:54;;;;;;;12.07;11.07;;;14.30;97.20;;;;;;1741591;28;20203;-74
2023/05/14 06:14:45;;;;;;;10.50;9.60;;;14.30;97.20;;;;;;1741663;28;20792;-74
2023/05/14 06:15:37;;;;;;;10.37;9.53;;;14.30;97.20;;;;;;1741565;28;20249;-74
2023/05/14 06:16:28;;;;;;;11.05;10.15;;;14.30;97.20;;;;;;1741557;28;20210;-74
2023/05/14 06:17:21;;;;;;;11.53;10.53;;;14.30;97.20;;;;;;1741699;28;20202;-74
2023/05/14 06:18:11;;;;;;;11.10;10.13;;;14.30;97.20;;;;;;1741882;28;20213;-74
2023/05/14 06:19:03;;;;;;;11.57;9.73;;;14.30;97.20;;;;;;1741656;28;20281;-74
2023/05/14 06:19:54;;;;;;;11.27;10.27;;;14.30;97.20;;;;;;1741256;28;20565;-74
2023/05/14 06:20:46;;;;;;;11.93;10.93;;;14.30;97.20;;;;;;1741489;28;20684;-74
2023/05/14 06:21:36;;;;;;;12.30;11.20;;;14.30;97.20;;;;;;1741528;28;20202;-74
2023/05/14 06:22:28;;;;;;;11.67;10.67;;;14.30;97.20;;;;;;1741611;28;20201;-74
2023/05/14 06:23:19;;;;;;;11.35;10.38;;;14.30;97.20;;;;;;1741669;28;20957;-75
2023/05/14 06:24:12;;;;;;;10.83;9.93;;;14.20;97.20;;;;;;1741360;28;20573;-73
2023/05/14 06:25:03;;;;;;;11.40;10.48;;;14.20;97.20;;;;;;1741752;28;20636;-74
2023/05/14 06:25:55;;;;;;;11.25;10.35;;;14.30;97.20;;;;;;1741523;28;20196;-74
2023/05/14 06:26:47;;;;;;;10.93;10.00;;;14.30;97.20;;;;;;1741540;28;20676;-73
2023/05/14 06:27:39;;;;;;;12.10;11.05;;;14.30;97.20;;;;;;1741508;28;20257;-74
2023/05/14 06:28:30;;;;;;;11.55;10.45;;;14.30;97.20;;;;;;1741398;28;20207;-74
2023/05/14 06:29:21;;;;;;;11.90;10.90;;;14.20;97.20;;;;;;1741631;28;20202;-74
2023/05/14 06:30:13;;;;;;;10.98;10.05;;;14.20;97.20;;;;;;1741035;28;20218;-74
2023/05/14 06:31:05;;;;;;;10.45;9.45;;;14.20;97.20;;;;;;1741539;28;20234;-74
2023/05/14 06:31:59;;;;;;;11.43;10.43;;;14.20;97.20;;;;;;1741468;28;20664;-74
2023/05/14 06:32:53;;;;;;;12.07;10.98;;;14.20;97.20;;;;;;1741500;28;20648;-74
2023/05/14 06:33:44;;;;;;;12.15;11.15;;;14.20;97.20;;;;;;1741533;28;20683;-74
2023/05/14 06:34:35;;;;;;;12.40;11.30;;;14.20;97.20;;;;;;1741535;28;20566;-74
2023/05/14 06:35:26;;;;;;;11.32;10.27;;;14.20;97.20;;;;;;1741467;28;20199;-73
2023/05/14 06:36:18;;;;;;;11.43;10.43;;;14.30;97.20;;;;;;1741495;28;20191;-74
2023/05/14 06:37:10;;;;;;;12.23;10.50;;;14.30;97.20;;;;;;1741497;28;20664;-74
2023/05/14 06:38:02;;;;;;;12.50;11.38;;;14.30;97.20;;;;;;1741159;28;20587;-75
2023/05/14 06:38:53;;;;;;;12.30;11.20;;;14.30;97.20;;;;;;1741439;28;20570;-74
2023/05/14 06:39:48;;;;;;;11.40;10.40;;;14.30;97.20;;;;;;1741290;28;20302;-74
2023/05/14 06:40:39;;;;;;;12.85;11.60;;;14.40;97.20;;;;;;1741490;28;20223;-74
2023/05/14 06:41:31;;;;;;;12.27;11.27;;;14.40;97.20;;;;;;1741228;28;20788;-74
2023/05/14 06:42:21;;;;;;;11.63;10.63;;;14.40;97.20;;;;;;1741450;28;20234;-74
2023/05/14 06:43:13;;;;;;;11.27;10.27;;;14.40;97.20;;;;;;1741425;28;20645;-74
2023/05/14 06:44:04;;;;;;;11.88;10.88;;;14.40;97.20;;;;;;1741463;28;20207;-74
2023/05/14 06:44:56;;;;;;;12.33;11.20;;;14.40;97.20;;;;;;1741295;28;20203;-74
2023/05/14 06:45:48;;;;;;;11.95;11.00;;;14.50;97.20;;;;;;1741374;28;20668;-74
2023/05/14 06:46:39;;;;;;;11.48;10.57;;;14.50;97.20;;;;;;1741344;28;20747;-74
2023/05/14 06:47:30;;;;;;;11.40;10.50;;;14.50;97.20;;;;;;1741501;28;20195;-74
2023/05/14 06:48:23;;;;;;;11.60;10.53;;;14.50;97.20;;;;;;1741406;28;20201;-74
2023/05/14 06:49:14;;;;;;;11.45;10.45;;;14.50;97.20;;;;;;1741382;28;20210;-74
2023/05/14 06:50:06;;;;;;;11.57;10.60;;;14.60;97.20;;;;;;1741094;28;20207;-74
2023/05/14 06:50:57;;;;;;;11.65;10.73;;;14.60;97.20;;;;;;1741292;28;20226;-74
2023/05/14 06:51:48;;;;;;;11.83;10.83;;;14.60;97.20;;;;;;1741049;28;20207;-74
2023/05/14 06:52:39;;;;;;;11.35;10.40;;;14.60;97.20;;;;;;1741462;28;20210;-74
2023/05/14 06:53:31;;;;;;;12.43;11.23;;;14.70;97.20;;;;;;1741404;28;20201;-74
2023/05/14 06:54:22;;;;;;;12.38;11.18;;;14.70;97.20;;;;;;1741407;28;20457;-74
2023/05/14 06:55:14;;;;;;;12.00;10.80;;;14.70;97.20;;;;;;1741376;28;20198;-74
2023/05/14 06:56:04;;;;;;;11.65;10.55;;;14.70;97.20;;;;;;1741371;28;20199;-74
2023/05/14 06:56:56;;;;;;;11.43;10.43;;;14.80;97.20;;;;;;1741367;28;20199;-74
2023/05/14 06:57:47;;;;;;;11.90;10.90;;;14.80;97.20;;;;;;1741261;28;20449;-74
2023/05/14 06:58:39;;;;;;;11.53;10.30;;;14.80;97.20;;;;;;1741306;28;20203;-74
2023/05/14 06:59:30;;;;;;;11.18;10.25;;;14.80;97.20;;;;;;1741148;28;20199;-74
2023/05/14 07:00:22;;;;;;;12.00;11.00;;;14.90;97.20;;;;;;1741163;28;20446;-74
2023/05/14 07:01:13;;;;;;;11.80;10.90;;;14.90;97.20;;;;;;1741269;28;20321;-74
2023/05/14 07:02:05;;;;;;;11.73;10.73;;;14.90;97.20;;;;;;1741318;28;20278;-74
2023/05/14 07:02:55;;;;;;;11.68;10.68;;;14.90;97.20;;;;;;1741262;28;20954;-74
2023/05/14 07:03:48;;;;;;;11.50;10.50;;;14.90;97.20;;;;;;1741323;28;20664;-75
2023/05/14 07:04:39;;;;;;;11.40;10.45;;;14.90;97.20;;;;;;1741247;28;20211;-74
2023/05/14 07:05:31;;;;;;;11.80;10.77;;;15.00;97.20;;;;;;1740349;28;20688;-74
2023/05/14 07:06:22;;;;;;;11.40;10.40;;;15.00;97.20;;;;;;1741340;28;20226;-74
2023/05/14 07:07:17;;;;;;;11.88;10.82;;;15.00;97.20;;;;;;1741211;28;20230;-74
2023/05/14 07:08:07;;;;;;;12.15;11.05;;;15.00;97.20;;;;;;1741307;28;20252;-74
2023/05/14 07:08:59;;;;;;;11.10;10.20;;;15.00;97.20;;;;;;1740972;28;20256;-74
2023/05/14 07:09:50;;;;;;;12.25;11.25;;;15.00;97.20;;;;;;1740930;28;20733;-74
2023/05/14 07:10:42;;;;;;;12.30;11.30;;;15.00;97.20;;;;;;1741145;28;20688;-74
2023/05/14 07:11:32;;;;;;;11.10;10.20;;;15.10;97.20;;;;;;1741125;28;20218;-74
2023/05/14 07:12:24;;;;;;;12.17;10.93;;;15.10;97.20;;;;;;1741207;28;20282;-74
2023/05/14 07:13:15;;;;;;;12.02;10.93;;;15.10;97.20;;;;;;1741246;28;20210;-74
2023/05/14 07:14:07;;;;;;;11.53;10.60;;;15.10;97.20;;;;;;1741272;28;20210;-74
2023/05/14 07:14:57;;;;;;;12.00;11.00;;;15.10;97.20;;;;;;1741232;28;20218;-74
2023/05/14 07:15:50;;;;;;;12.90;11.70;;;15.10;97.20;;;;;;1741239;28;20203;-74
2023/05/14 07:16:41;;;;;;;11.55;10.45;;;15.10;97.20;;;;;;1741186;28;20207;-74
2023/05/14 07:17:33;;;;;;;10.40;9.40;;;15.10;97.20;;;;;;1741254;28;20218;-74
2023/05/14 07:18:23;;;;;;;11.18;10.32;;;15.10;97.20;;;;;;1741143;28;20210;-74
2023/05/14 07:19:17;;;;;;;11.70;10.70;;;15.10;97.20;;;;;;1741208;28;20675;-74
2023/05/14 07:20:08;;;;;;;11.95;10.95;;;15.10;97.20;;;;;;1740857;28;20217;-73
2023/05/14 07:21:00;;;;;;;11.60;10.60;;;15.20;97.20;;;;;;1741099;28;20219;-74
2023/05/14 07:21:51;;;;;;;13.85;11.95;;;15.20;97.20;;;;;;1741118;28;20234;-74
2023/05/14 07:22:42;;;;;;;12.53;11.33;;;15.20;97.20;;;;;;1741052;28;20655;-74
2023/05/14 07:23:35;;;;;;;12.02;10.90;;;15.20;97.20;;;;;;1741071;28;20199;-74
2023/05/14 07:24:26;;;;;;;12.35;11.25;;;15.20;97.20;;;;;;1741148;28;20206;-74
2023/05/14 07:25:17;;;;;;;12.90;11.80;;;15.30;97.20;;;;;;1741067;28;20203;-74
2023/05/14 07:26:09;;;;;;;11.77;10.77;;;15.30;97.20;;;;;;1741120;28;20203;-74
2023/05/14 07:27:00;;;;;;;11.55;10.63;;;15.40;97.20;;;;;;1741039;28;20439;-74
2023/05/14 07:27:52;;;;;;;11.35;10.35;;;15.40;97.20;;;;;;1740902;28;20293;-74
2023/05/14 07:28:43;;;;;;;12.48;11.40;;;15.50;97.20;;;;;;1741057;28;20559;-74
2023/05/14 07:29:34;;;;;;;12.10;10.97;;;15.50;97.20;;;;;;1740820;28;20590;-74
2023/05/14 07:30:25;;;;;;;12.70;11.63;;;15.50;97.20;;;;;;1740946;28;20203;-74
2023/05/14 07:31:17;;;;;;;13.23;11.60;;;15.60;97.20;;;;;;1741138;28;20229;-74
2023/05/14 07:32:08;;;;;;;12.18;11.07;;;15.60;97.20;;;;;;1741137;28;20203;-74
2023/05/14 07:32:59;;;;;;;12.67;11.47;;;15.70;97.20;;;;;;1741196;28;20203;-74
2023/05/14 07:33:50;;;;;;;11.82;10.75;;;15.70;97.20;;;;;;1741152;28;20453;-74
2023/05/14 07:34:43;;;;;;;11.50;10.60;;;15.80;97.20;;;;;;1741172;28;20205;-74
2023/05/14 07:35:34;;;;;;;12.00;11.00;;;15.80;97.20;;;;;;1741920;28;20206;-74
2023/05/14 07:36:26;;;;;;;11.03;10.13;;;15.90;97.20;;;;;;1740919;28;20522;-74
2023/05/14 07:37:17;;;;;;;11.90;10.85;;;15.90;97.20;;;;;;1741093;28;20199;-74
2023/05/14 07:38:08;;;;;;;12.20;11.10;;;16.00;97.20;;;;;;1741116;28;20668;-74
2023/05/14 07:38:59;;;;;;;11.70;10.70;;;16.00;97.20;;;;;;1741141;28;20210;-74
2023/05/14 07:39:51;;;;;;;11.20;10.23;;;16.10;97.20;;;;;;1740756;28;20201;-74
2023/05/14 07:40:42;;;;;;;11.52;10.45;;;16.10;97.20;;;;;;1740983;28;20465;-74
2023/05/14 07:41:33;;;;;;;11.70;10.70;;;16.20;97.20;;;;;;1741007;28;20201;-74
2023/05/14 07:42:25;;;;;;;12.20;11.13;;;16.20;97.20;;;;;;1741133;28;20456;-76
2023/05/14 07:43:17;;;;;;;12.10;11.02;;;16.30;97.20;;;;;;1741084;28;20256;-74
2023/05/14 07:44:08;;;;;;;12.35;11.32;;;16.30;97.20;;;;;;1741165;28;20219;-74
2023/05/14 07:44:59;;;;;;;11.60;10.40;;;16.40;97.20;;;;;;1741132;28;20229;-74
2023/05/14 07:45:50;;;;;;;11.13;10.18;;;16.40;97.20;;;;;;1741049;28;20255;-74
2023/05/14 07:46:42;;;;;;;11.70;10.73;;;16.40;97.20;;;;;;1741088;28;20195;-74
2023/05/14 07:47:33;;;;;;;13.18;11.95;;;16.50;97.20;;;;;;1741062;28;20461;-74
2023/05/14 07:48:25;;;;;;;11.53;10.43;;;16.50;97.20;;;;;;1741064;28;20199;-74
2023/05/14 07:49:15;;;;;;;11.23;10.32;;;16.60;97.20;;;;;;1741091;28;20236;-74
2023/05/14 07:50:10;;;;;;;11.40;10.37;;;16.60;97.20;;;;;;1740553;28;20241;-74
2023/05/14 07:51:00;;;;;;;11.27;10.32;;;16.70;97.20;;;;;;1741000;28;20654;-74
2023/05/14 07:51:52;;;;;;;11.27;10.30;;;16.70;97.20;;;;;;1740978;28;20565;-75
2023/05/14 07:52:43;;;;;;;11.13;10.23;;;16.70;97.20;;;;;;1741133;28;20211;-74
2023/05/14 07:53:35;;;;;;;11.47;10.50;;;16.70;97.20;;;;;;1741017;28;20199;-74
2023/05/14 07:54:25;;;;;;;12.68;11.52;;;16.80;97.20;;;;;;1741049;28;20488;-74
2023/05/14 07:55:17;;;;;;;11.60;10.10;;;16.80;97.20;;;;;;1741246;28;20195;-74
2023/05/14 07:56:08;;;;;;;11.25;10.25;;;16.80;97.20;;;;;;1741162;28;20206;-74
2023/05/14 07:56:59;;;;;;;11.07;10.07;;;16.80;97.20;;;;;;1741044;28;20286;-74
2023/05/14 07:57:50;;;;;;;11.88;10.68;;;16.80;97.20;;;;;;1741011;28;20238;-74
2023/05/14 07:58:42;;;;;;;11.57;10.37;;;16.90;97.20;;;;;;1741062;28;20203;-74
2023/05/14 07:59:33;;;;;;;11.98;10.98;;;17.00;97.20;;;;;;1740712;28;20199;-74
2023/05/14 08:00:24;;;;;;;11.10;10.10;;;17.00;97.20;;;;;;1740896;28;20191;-74
2023/05/14 08:01:15;;;;;;;11.85;10.85;;;17.10;97.20;;;;;;1740994;28;20595;-74
2023/05/14 08:02:08;;;;;;;11.33;10.40;;;17.10;97.20;;;;;;1740967;28;20579;-74
2023/05/14 08:02:59;;;;;;;12.02;10.32;;;17.10;97.20;;;;;;1740830;28;20464;-74
2023/05/14 08:03:51;;;;;;;10.97;10.07;;;17.20;97.20;;;;;;1741019;28;20291;-74
2023/05/14 08:04:42;;;;;;;11.77;10.77;;;17.20;97.20;;;;;;1741293;28;20820;-74
2023/05/14 08:05:35;;;;;;;11.02;10.10;;;17.30;97.20;;;;;;1741588;28;20217;-74
2023/05/14 08:06:27;;;;;;;11.38;10.38;;;17.30;97.20;;;;;;1741807;28;20211;-74
2023/05/14 08:07:18;;;;;;;11.30;10.30;;;17.40;97.20;;;;;;1741692;28;20260;-74
2023/05/14 08:08:09;;;;;;;10.63;9.73;;;17.40;97.20;;;;;;1741594;28;20209;-74
2023/05/14 08:09:01;;;;;;;11.30;10.30;;;17.40;97.20;;;;;;1741907;28;20206;-74
2023/05/14 08:09:52;;;;;;;11.07;10.20;;;17.50;97.20;;;;;;1741577;28;20437;-74
2023/05/14 08:10:44;;;;;;;12.37;11.07;;;17.50;97.20;;;;;;1741747;28;20223;-74
2023/05/14 08:11:34;;;;;;;11.98;10.88;;;17.60;97.20;;;;;;1741637;28;20291;-74
2023/05/14 08:12:27;;;;;;;12.13;11.13;;;17.60;97.20;;;;;;1741977;28;20209;-74
2023/05/14 08:13:18;;;;;;;12.20;11.20;;;17.60;97.20;;;;;;1741565;28;20214;-74
2023/05/14 08:14:10;;;;;;;12.70;11.53;;;17.70;97.20;;;;;;1742168;28;20203;-74
2023/05/14 08:15:01;;;;;;;12.32;11.23;;;17.70;97.20;;;;;;1741807;28;20203;-74
2023/05/14 08:15:53;;;;;;;13.63;12.43;;;17.80;97.20;;;;;;1741814;28;20195;-74
2023/05/14 08:16:43;;;;;;;12.52;11.43;;;17.80;97.20;;;;;;1741966;28;20664;-75
2023/05/14 08:17:35;;;;;;;12.20;10.87;;;17.90;97.20;;;;;;1743133;28;20669;-75
2023/05/14 08:18:26;;;;;;;11.23;10.32;;;17.90;97.20;;;;;;1742959;28;20203;-75
2023/05/14 08:19:18;;;;;;;12.17;11.07;;;17.90;97.20;;;;;;1743003;28;20199;-74
2023/05/14 08:20:10;;;;;;;12.30;11.20;;;18.00;97.20;;;;;;1742708;28;20574;-75
2023/05/14 08:21:04;;;;;;;10.93;10.02;;;18.00;97.20;;;;;;1743182;28;20212;-75
2023/05/14 08:21:54;;;;;;;12.27;11.27;;;18.10;97.20;;;;;;1742963;28;20687;-75
2023/05/14 08:22:46;;;;;;;12.07;10.97;;;18.10;97.20;;;;;;1743162;28;20665;-75
2023/05/14 08:23:37;;;;;;;11.80;10.80;;;18.20;97.20;;;;;;1743070;28;20202;-75
2023/05/14 08:24:29;;;;;;;13.33;11.47;;;18.30;97.20;;;;;;1743038;28;20205;-74
2023/05/14 08:25:19;;;;;;;12.70;11.60;;;18.30;97.20;;;;;;1742966;28;20202;-75
2023/05/14 08:26:11;;;;;;;12.70;11.50;;;18.40;97.20;;;;;;1743066;28;20222;-74
2023/05/14 08:27:02;;;;;;;12.05;10.98;;;18.50;97.20;;;;;;1743168;28;20206;-75
2023/05/14 08:27:54;;;;;;;11.80;10.70;;;18.50;97.20;;;;;;1743211;28;20199;-75
2023/05/14 08:28:44;;;;;;;11.63;10.52;;;18.60;97.20;;;;;;1743069;28;20446;-75
2023/05/14 08:29:36;;;;;;;12.17;11.07;;;18.70;97.20;;;;;;1742457;28;20235;-75
2023/05/14 08:30:27;;;;;;;11.73;10.73;;;18.70;97.20;;;;;;1742779;28;20199;-76
2023/05/14 08:31:19;;;;;;;12.37;11.27;;;18.80;97.20;;;;;;1742999;28;20211;-75
2023/05/14 08:32:10;;;;;;;11.07;10.15;;;18.80;97.20;;;;;;1742657;28;20817;-75
2023/05/14 08:33:01;;;;;;;11.33;10.33;;;18.80;97.20;;;;;;1742853;28;20290;-74
2023/05/14 08:33:52;;;;;;;13.40;11.52;;;18.90;97.20;;;;;;1743063;28;20341;-75
2023/05/14 08:34:44;;;;;;;11.37;10.47;;;19.00;97.20;;;;;;1743187;28;20199;-75
2023/05/14 08:35:35;;;;;;;13.05;11.85;;;19.00;97.20;;;;;;1743232;28;20199;-75
2023/05/14 08:36:28;;;;;;;12.07;10.97;;;19.00;97.20;;;;;;1743078;28;20199;-75
2023/05/14 08:37:19;;;;;;;13.00;11.75;;;19.10;97.20;;;;;;1742980;28;20468;-75
2023/05/14 08:38:10;;;;;;;12.50;11.40;;;19.10;97.20;;;;;;1742918;28;20286;-75
2023/05/14 08:39:01;;;;;;;11.30;10.40;;;19.20;97.20;;;;;;1742966;28;20199;-75
2023/05/14 08:39:53;;;;;;;13.67;11.70;;;19.20;97.20;;;;;;1742870;28;20203;-75
2023/05/14 08:40:47;;;;;;;11.68;10.68;;;19.20;97.20;;;;;;1743176;28;20219;-76
2023/05/14 08:41:40;;;;;;;12.23;11.13;;;19.20;97.20;;;;;;1742359;28;20199;-75
2023/05/14 08:42:31;;;;;;;11.45;10.45;;;19.30;97.20;;;;;;1742209;28;20206;-75
2023/05/14 08:43:26;;;;;;;12.68;10.98;;;19.30;97.20;;;;;;1742389;28;20191;-75
2023/05/14 08:44:18;;;;;;;10.75;9.75;;;19.30;97.20;;;;;;1742394;28;20607;-75
2023/05/14 08:45:16;;;;;;;11.40;10.48;;;19.40;97.20;;;;;;1743098;28;20199;-75
2023/05/14 08:46:09;;;;;;;11.95;10.20;;;19.40;97.20;;;;;;1742850;28;20222;-75
2023/05/14 08:47:01;;;;;;;11.95;10.85;;;19.40;97.20;;;;;;1742388;28;20687;-75
2023/05/14 08:47:54;;;;;;;11.10;10.10;;;19.40;97.20;;;;;;1742807;28;20199;-75
2023/05/14 08:48:51;;;;;;;11.32;10.43;;;19.50;97.20;;;;;;1742836;28;20241;-75
2023/05/14 08:49:43;;;;;;;12.52;11.43;;;19.50;97.20;;;;;;1742486;28;20203;-75
2023/05/14 08:50:35;;;;;;;10.65;9.75;;;19.60;97.20;;;;;;1742389;28;20583;-75
2023/05/14 08:51:28;;;;;;;10.88;9.82;;;19.60;97.20;;;;;;1742537;28;20207;-75
2023/05/14 08:52:22;;;;;;;11.10;10.05;;;19.60;97.20;;;;;;1742587;28;20352;-75
2023/05/14 08:53:13;;;;;;;10.73;9.82;;;19.70;97.20;;;;;;1742609;28;20642;-75
2023/05/14 08:54:06;;;;;;;11.67;10.57;;;19.80;97.20;;;;;;1743236;28;20634;-76
2023/05/14 08:54:59;;;;;;;12.43;11.43;;;19.90;97.20;;;;;;1743070;28;20441;-75
2023/05/14 08:55:51;;;;;;;13.90;12.50;;;20.00;97.20;;;;;;1742896;28;20281;-75
2023/05/14 08:56:44;;;;;;;16.52;12.80;;;20.10;97.20;;;;;;1743076;28;20210;-76
2023/05/14 08:57:36;;;;;;;13.80;12.57;;;20.20;97.20;;;;;;1742985;28;20230;-76
2023/05/14 08:58:27;;;;;;;14.75;13.35;;;20.30;97.20;;;;;;1743168;28;20223;-75
2023/05/14 08:59:19;;;;;;;12.15;11.05;;;20.40;97.20;;;;;;1742719;28;20282;-76
2023/05/14 09:00:14;;;;;;;11.20;10.30;;;20.50;97.20;;;;;;1742407;28;20202;-76
2023/05/14 09:01:06;;;;;;;11.98;10.88;;;20.60;97.20;;;;;;1742857;28;20207;-75
2023/05/14 09:02:01;;;;;;;12.02;10.93;;;20.70;97.20;;;;;;1742550;28;20203;-76
2023/05/14 09:02:53;;;;;;;12.35;11.07;;;20.80;97.20;;;;;;1742785;28;20202;-76
2023/05/14 09:03:44;;;;;;;10.43;9.48;;;20.90;97.20;;;;;;1742609;28;20207;-76
2023/05/14 09:04:36;;;;;;;10.93;9.82;;;21.00;97.20;;;;;;1742970;28;20269;-76
2023/05/14 09:05:27;;;;;;;10.45;9.55;;;21.10;97.20;;;;;;1742731;28;20340;-76
2023/05/14 09:06:20;;;;;;;11.60;10.50;;;21.20;97.20;;;;;;1744331;28;20223;-76
2023/05/14 09:07:12;;;;;;;12.10;10.57;;;21.20;97.20;;;;;;1742962;28;20198;-76
2023/05/14 09:08:04;;;;;;;11.05;10.15;;;21.30;97.20;;;;;;1742737;28;20199;-76
2023/05/14 09:08:55;;;;;;;10.85;9.77;;;21.30;97.20;;;;;;1742813;28;20203;-76
2023/05/14 09:09:47;;;;;;;10.87;9.90;;;21.40;97.20;;;;;;1742259;28;20203;-76
2023/05/14 09:10:39;;;;;;;10.45;9.45;;;21.50;97.20;;;;;;1742699;28;20469;-75
2023/05/14 09:11:30;;;;;;;10.38;9.48;;;21.60;97.20;;;;;;1742515;28;20199;-75
2023/05/14 09:12:21;;;;;;;11.82;10.73;;;21.60;97.20;;;;;;1742716;28;20202;-75
2023/05/14 09:13:14;;;;;;;11.00;10.10;;;21.70;97.20;;;;;;1742238;28;20210;-75
2023/05/14 09:14:05;;;;;;;11.93;10.93;;;21.90;97.20;;;;;;1742681;28;20478;-75
2023/05/14 09:14:56;;;;;;;11.80;10.80;;;22.00;97.20;;;;;;1742795;28;20207;-75
2023/05/14 09:15:50;;;;;;;11.10;10.10;;;22.00;97.20;;;;;;1742848;28;20203;-77
2023/05/14 09:16:44;;;;;;;10.23;9.32;;;22.20;97.20;;;;;;1742431;28;20653;-74
2023/05/14 09:17:35;;;;;;;12.82;9.90;;;22.20;97.20;;;;;;1742441;28;20203;-75
2023/05/14 09:18:27;;;;;;;11.47;10.27;;;22.40;97.20;;;;;;1742570;28;20198;-74
2023/05/14 09:19:18;;;;;;;9.95;9.25;;;22.40;97.20;;;;;;1742852;28;20203;-75
2023/05/14 09:20:12;;;;;;;11.30;10.40;;;22.50;97.20;;;;;;1742378;28;20202;-74
2023/05/14 09:21:03;;;;;;;10.90;10.00;;;22.50;97.20;;;;;;1742508;28;20231;-75
2023/05/14 09:21:58;;;;;;;11.65;10.65;;;22.50;97.20;;;;;;1742533;28;20207;-75